DLH1KN EDDF-EDDW
Flight info
| Callsign | DLH1KN |
|---|---|
| Flight time | 0h 38m |
| Altitude | 22000 |
| Route | MARUN3W/25C MARUN Y153 WRB N850 NIE Z88 VERED VERED3P |
| Aircraft | A321/M-SDE3FGHIRWY/LB1 |
Departure
| Time | 2026-05-06 13:15 |
|---|---|
| Airport | Frankfurt Main Airport (EDDF) |
Arrival
| Time | 2026-05-06 13:53 |
|---|---|
| Airport | Bremen Airport (EDDW) |
| Time | Latitude | Longitude | Altitude | Speed | Heading |
|---|---|---|---|---|---|
| 2026-05-06 12:59 | 50.04909 | 8.58867 | 362 ft | 0 kts | 160° |
| 2026-05-06 13:07 | 50.04920 | 8.58860 | 366 ft | 4 kts | 160° |
| 2026-05-06 13:08 | 50.04942 | 8.58848 | 362 ft | 2 kts | 159° |
| 2026-05-06 13:08 | 50.04963 | 8.58842 | 365 ft | 4 kts | 214° |
| 2026-05-06 13:08 | 50.04976 | 8.58871 | 362 ft | 4 kts | 250° |
| 2026-05-06 13:08 | 50.04982 | 8.58896 | 361 ft | 1 kts | 250° |
| 2026-05-06 13:12 | 50.04980 | 8.58886 | 362 ft | 1 kts | 250° |
| 2026-05-06 13:12 | 50.04971 | 8.58848 | 365 ft | 7 kts | 250° |
| 2026-05-06 13:12 | 50.04948 | 8.58753 | 360 ft | 11 kts | 250° |
| 2026-05-06 13:12 | 50.04897 | 8.58681 | 361 ft | 10 kts | 180° |
| 2026-05-06 13:13 | 50.04838 | 8.58712 | 367 ft | 8 kts | 160° |
| 2026-05-06 13:13 | 50.04791 | 8.58739 | 367 ft | 6 kts | 160° |
| 2026-05-06 13:13 | 50.04746 | 8.58765 | 368 ft | 8 kts | 160° |
| 2026-05-06 13:13 | 50.04676 | 8.58763 | 370 ft | 11 kts | 186° |
| 2026-05-06 13:14 | 50.04599 | 8.58735 | 371 ft | 11 kts | 217° |
| 2026-05-06 13:14 | 50.04536 | 8.58657 | 371 ft | 12 kts | 212° |
| 2026-05-06 13:14 | 50.04476 | 8.58537 | 370 ft | 22 kts | 249° |
| 2026-05-06 13:14 | 50.04336 | 8.57960 | 367 ft | 93 kts | 249° |
| 2026-05-06 13:15 | 50.04037 | 8.56711 | 363 ft | 151 kts | 250° |
| 2026-05-06 13:15 | 50.03641 | 8.55022 | 733 ft | 168 kts | 249° |
| 2026-05-06 13:15 | 50.03238 | 8.53330 | 1514 ft | 167 kts | 248° |
| 2026-05-06 13:15 | 50.02817 | 8.51602 | 2073 ft | 176 kts | 248° |
| 2026-05-06 13:16 | 50.02249 | 8.49847 | 2408 ft | 191 kts | 231° |
| 2026-05-06 13:16 | 50.01197 | 8.48516 | 2912 ft | 200 kts | 208° |
| 2026-05-06 13:16 | 49.99855 | 8.47908 | 3516 ft | 203 kts | 189° |
| 2026-05-06 13:16 | 49.98460 | 8.47615 | 4164 ft | 202 kts | 191° |
| 2026-05-06 13:17 | 49.97067 | 8.47305 | 4740 ft | 203 kts | 190° |
| 2026-05-06 13:17 | 49.95663 | 8.46973 | 5284 ft | 205 kts | 194° |
| 2026-05-06 13:17 | 49.94238 | 8.46392 | 5520 ft | 222 kts | 198° |
| 2026-05-06 13:17 | 49.92699 | 8.45613 | 5783 ft | 239 kts | 207° |
| 2026-05-06 13:18 | 49.91403 | 8.44030 | 6441 ft | 240 kts | 233° |
| 2026-05-06 13:18 | 49.90696 | 8.41684 | 7099 ft | 245 kts | 258° |
| 2026-05-06 13:18 | 49.90758 | 8.39041 | 7775 ft | 251 kts | 285° |
| 2026-05-06 13:18 | 49.91642 | 8.36689 | 8466 ft | 259 kts | 313° |
| 2026-05-06 13:19 | 49.93194 | 8.35192 | 9144 ft | 269 kts | 334° |
| 2026-05-06 13:19 | 49.94980 | 8.34009 | 9470 ft | 287 kts | 335° |
| 2026-05-06 13:19 | 49.96852 | 8.32807 | 9990 ft | 296 kts | 335° |
| 2026-05-06 13:19 | 49.98825 | 8.31546 | 10141 ft | 318 kts | 335° |
| 2026-05-06 13:20 | 50.00948 | 8.30208 | 10255 ft | 339 kts | 338° |
| 2026-05-06 13:20 | 50.03302 | 8.29279 | 10384 ft | 360 kts | 349° |
| 2026-05-06 13:20 | 50.05823 | 8.29092 | 10707 ft | 373 kts | 1° |
| 2026-05-06 13:20 | 50.08408 | 8.29711 | 11227 ft | 380 kts | 13° |
| 2026-05-06 13:21 | 50.10940 | 8.30969 | 11798 ft | 384 kts | 17° |
| 2026-05-06 13:21 | 50.13475 | 8.32290 | 12369 ft | 387 kts | 17° |
| 2026-05-06 13:21 | 50.16043 | 8.33631 | 12913 ft | 390 kts | 17° |
| 2026-05-06 13:21 | 50.18625 | 8.34986 | 13492 ft | 393 kts | 17° |
| 2026-05-06 13:22 | 50.21226 | 8.36354 | 13998 ft | 396 kts | 17° |
| 2026-05-06 13:22 | 50.23850 | 8.37734 | 14499 ft | 399 kts | 17° |
| 2026-05-06 13:22 | 50.26495 | 8.39127 | 15005 ft | 403 kts | 18° |
| 2026-05-06 13:22 | 50.29160 | 8.40534 | 15507 ft | 406 kts | 18° |
| 2026-05-06 13:23 | 50.31842 | 8.41965 | 15986 ft | 409 kts | 18° |
| 2026-05-06 13:23 | 50.34546 | 8.43435 | 16459 ft | 412 kts | 18° |
| 2026-05-06 13:23 | 50.37266 | 8.44929 | 16891 ft | 416 kts | 18° |
| 2026-05-06 13:23 | 50.40007 | 8.46439 | 17331 ft | 420 kts | 18° |
| 2026-05-06 13:24 | 50.42774 | 8.47962 | 17784 ft | 423 kts | 18° |
| 2026-05-06 13:24 | 50.45559 | 8.49489 | 18197 ft | 426 kts | 18° |
| 2026-05-06 13:24 | 50.48382 | 8.51023 | 18584 ft | 429 kts | 17° |
| 2026-05-06 13:24 | 50.51228 | 8.52468 | 18983 ft | 431 kts | 16° |
| 2026-05-06 13:25 | 50.54104 | 8.53841 | 19380 ft | 434 kts | 15° |
| 2026-05-06 13:25 | 50.57009 | 8.55185 | 19792 ft | 436 kts | 14° |
| 2026-05-06 13:25 | 50.59932 | 8.56529 | 20141 ft | 440 kts | 14° |
| 2026-05-06 13:25 | 50.62883 | 8.57903 | 20526 ft | 443 kts | 14° |
| 2026-05-06 13:26 | 50.65847 | 8.59310 | 20916 ft | 446 kts | 15° |
| 2026-05-06 13:26 | 50.68827 | 8.60741 | 21227 ft | 448 kts | 15° |
| 2026-05-06 13:26 | 50.71810 | 8.62182 | 21490 ft | 449 kts | 15° |
| 2026-05-06 13:26 | 50.74803 | 8.63631 | 21702 ft | 451 kts | 15° |
| 2026-05-06 13:27 | 50.77826 | 8.65099 | 21761 ft | 460 kts | 15° |
| 2026-05-06 13:27 | 50.80866 | 8.66577 | 21758 ft | 466 kts | 15° |
| 2026-05-06 13:27 | 50.83953 | 8.68171 | 21758 ft | 468 kts | 17° |
| 2026-05-06 13:27 | 50.87009 | 8.69962 | 21760 ft | 469 kts | 19° |
| 2026-05-06 13:28 | 50.90032 | 8.71901 | 21757 ft | 469 kts | 21° |
| 2026-05-06 13:28 | 50.93038 | 8.73917 | 21757 ft | 469 kts | 21° |
| 2026-05-06 13:28 | 50.96081 | 8.75969 | 21757 ft | 469 kts | 21° |
| 2026-05-06 13:28 | 50.99051 | 8.77942 | 21755 ft | 469 kts | 20° |
| 2026-05-06 13:29 | 51.02068 | 8.79901 | 21757 ft | 469 kts | 20° |
| 2026-05-06 13:29 | 51.05097 | 8.81831 | 21750 ft | 468 kts | 20° |
| 2026-05-06 13:29 | 51.08123 | 8.83736 | 21744 ft | 467 kts | 20° |
| 2026-05-06 13:29 | 51.11137 | 8.85632 | 21751 ft | 467 kts | 20° |
| 2026-05-06 13:30 | 51.14161 | 8.87547 | 21747 ft | 467 kts | 20° |
| 2026-05-06 13:30 | 51.17181 | 8.89475 | 21748 ft | 467 kts | 20° |
| 2026-05-06 13:30 | 51.20195 | 8.91412 | 21752 ft | 467 kts | 20° |
| 2026-05-06 13:30 | 51.23214 | 8.93359 | 21748 ft | 467 kts | 20° |
| 2026-05-06 13:31 | 51.26222 | 8.95304 | 21770 ft | 467 kts | 21° |
| 2026-05-06 13:31 | 51.29222 | 8.97247 | 21782 ft | 466 kts | 21° |
| 2026-05-06 13:31 | 51.32227 | 8.99189 | 21784 ft | 465 kts | 21° |
| 2026-05-06 13:31 | 51.35221 | 9.01119 | 21788 ft | 464 kts | 21° |
| 2026-05-06 13:32 | 51.38216 | 9.03053 | 21791 ft | 463 kts | 21° |
| 2026-05-06 13:32 | 51.41202 | 9.04988 | 21789 ft | 463 kts | 21° |
| 2026-05-06 13:32 | 51.44190 | 9.06931 | 21784 ft | 463 kts | 21° |
| 2026-05-06 13:32 | 51.47170 | 9.08870 | 21796 ft | 462 kts | 21° |
| 2026-05-06 13:33 | 51.50187 | 9.10627 | 21801 ft | 461 kts | 15° |
| 2026-05-06 13:33 | 51.53309 | 9.11681 | 21806 ft | 458 kts | 6° |
| 2026-05-06 13:33 | 51.56471 | 9.12352 | 21809 ft | 457 kts | 6° |
| 2026-05-06 13:33 | 51.59623 | 9.13026 | 21806 ft | 457 kts | 6° |
| 2026-05-06 13:34 | 51.62770 | 9.13702 | 21809 ft | 457 kts | 6° |
| 2026-05-06 13:34 | 51.65919 | 9.14387 | 21807 ft | 456 kts | 6° |
| 2026-05-06 13:34 | 51.69064 | 9.15071 | 21810 ft | 455 kts | 6° |
| 2026-05-06 13:34 | 51.72214 | 9.15261 | 21804 ft | 452 kts | 353° |
| 2026-05-06 13:35 | 51.75261 | 9.14178 | 21802 ft | 447 kts | 339° |
| 2026-05-06 13:35 | 51.78185 | 9.12472 | 21805 ft | 447 kts | 338° |
| 2026-05-06 13:35 | 51.81101 | 9.10749 | 21800 ft | 446 kts | 338° |
| 2026-05-06 13:35 | 51.84011 | 9.09027 | 21805 ft | 446 kts | 338° |
| 2026-05-06 13:36 | 51.86898 | 9.07318 | 21811 ft | 447 kts | 338° |
| 2026-05-06 13:36 | 51.89851 | 9.05576 | 21679 ft | 445 kts | 338° |
| 2026-05-06 13:36 | 51.92712 | 9.03888 | 21411 ft | 442 kts | 338° |
| 2026-05-06 13:36 | 51.95595 | 9.02178 | 21158 ft | 441 kts | 338° |
| 2026-05-06 13:37 | 51.98473 | 9.00466 | 20899 ft | 440 kts | 338° |
| 2026-05-06 13:37 | 52.01340 | 8.98765 | 20641 ft | 439 kts | 338° |
| 2026-05-06 13:37 | 52.04203 | 8.97065 | 20398 ft | 437 kts | 338° |
| 2026-05-06 13:37 | 52.07041 | 8.95375 | 19826 ft | 431 kts | 338° |
| 2026-05-06 13:38 | 52.09836 | 8.93710 | 19174 ft | 426 kts | 337° |
| 2026-05-06 13:38 | 52.12603 | 8.92060 | 18555 ft | 421 kts | 337° |
| 2026-05-06 13:38 | 52.15337 | 8.90425 | 17912 ft | 416 kts | 337° |
| 2026-05-06 13:38 | 52.18036 | 8.88805 | 17326 ft | 411 kts | 337° |
| 2026-05-06 13:39 | 52.20698 | 8.87211 | 16745 ft | 405 kts | 338° |
| 2026-05-06 13:39 | 52.23319 | 8.85640 | 16196 ft | 398 kts | 338° |
| 2026-05-06 13:39 | 52.25897 | 8.84092 | 15670 ft | 392 kts | 338° |
| 2026-05-06 13:39 | 52.28436 | 8.82564 | 15142 ft | 386 kts | 337° |
| 2026-05-06 13:40 | 52.30929 | 8.81059 | 14617 ft | 381 kts | 337° |
| 2026-05-06 13:40 | 52.33415 | 8.79559 | 14097 ft | 379 kts | 337° |
| 2026-05-06 13:40 | 52.35877 | 8.78068 | 13559 ft | 377 kts | 337° |
| 2026-05-06 13:40 | 52.38334 | 8.76576 | 12970 ft | 374 kts | 337° |
| 2026-05-06 13:41 | 52.40767 | 8.75103 | 12422 ft | 370 kts | 338° |
| 2026-05-06 13:41 | 52.43166 | 8.73652 | 11854 ft | 366 kts | 338° |
| 2026-05-06 13:41 | 52.45572 | 8.72193 | 11541 ft | 377 kts | 338° |
| 2026-05-06 13:41 | 52.48007 | 8.70711 | 11280 ft | 368 kts | 339° |
| 2026-05-06 13:42 | 52.50390 | 8.69263 | 11032 ft | 364 kts | 339° |
| 2026-05-06 13:42 | 52.52757 | 8.67821 | 10841 ft | 362 kts | 339° |
| 2026-05-06 13:42 | 52.55109 | 8.66384 | 10838 ft | 362 kts | 339° |
| 2026-05-06 13:42 | 52.57475 | 8.64938 | 10845 ft | 362 kts | 339° |
| 2026-05-06 13:43 | 52.59834 | 8.63498 | 10845 ft | 364 kts | 339° |
| 2026-05-06 13:43 | 52.62201 | 8.62053 | 10854 ft | 363 kts | 339° |
| 2026-05-06 13:43 | 52.64565 | 8.60610 | 10854 ft | 362 kts | 339° |
| 2026-05-06 13:43 | 52.66891 | 8.59191 | 10862 ft | 362 kts | 339° |
| 2026-05-06 13:44 | 52.69264 | 8.57740 | 10351 ft | 365 kts | 339° |
| 2026-05-06 13:44 | 52.71636 | 8.56278 | 9877 ft | 358 kts | 341° |
| 2026-05-06 13:44 | 52.73886 | 8.54882 | 9717 ft | 329 kts | 341° |
| 2026-05-06 13:44 | 52.75931 | 8.53611 | 9453 ft | 299 kts | 341° |
| 2026-05-06 13:45 | 52.77821 | 8.52439 | 8901 ft | 284 kts | 342° |
| 2026-05-06 13:45 | 52.81434 | 8.50211 | 7463 ft | 273 kts | 342° |
| 2026-05-06 13:45 | 52.83226 | 8.49106 | 6964 ft | 275 kts | 342° |
| 2026-05-06 13:46 | 52.85010 | 8.48004 | 6577 ft | 273 kts | 343° |
| 2026-05-06 13:46 | 52.86793 | 8.46929 | 6188 ft | 273 kts | 344° |
| 2026-05-06 13:46 | 52.88574 | 8.45876 | 5801 ft | 271 kts | 344° |
| 2026-05-06 13:46 | 52.90344 | 8.44830 | 5409 ft | 269 kts | 344° |
| 2026-05-06 13:47 | 52.92101 | 8.43789 | 5038 ft | 267 kts | 344° |
| 2026-05-06 13:47 | 52.93832 | 8.42759 | 4793 ft | 259 kts | 344° |
| 2026-05-06 13:47 | 52.95489 | 8.41764 | 4665 ft | 246 kts | 344° |
| 2026-05-06 13:47 | 52.97058 | 8.40914 | 4436 ft | 231 kts | 355° |
| 2026-05-06 13:48 | 52.98629 | 8.40728 | 4131 ft | 224 kts | 3° |
| 2026-05-06 13:48 | 53.00175 | 8.40731 | 3811 ft | 220 kts | 10° |
| 2026-05-06 13:48 | 53.01576 | 8.41530 | 3480 ft | 212 kts | 33° |
| 2026-05-06 13:48 | 53.02718 | 8.43053 | 3264 ft | 210 kts | 49° |
| 2026-05-06 13:49 | 53.03514 | 8.45063 | 3103 ft | 209 kts | 65° |
| 2026-05-06 13:49 | 53.03913 | 8.47415 | 3002 ft | 215 kts | 81° |
| 2026-05-06 13:49 | 53.03963 | 8.49044 | 2995 ft | 211 kts | 85° |
| 2026-05-06 13:49 | 53.04047 | 8.52271 | 2964 ft | 208 kts | 85° |
| 2026-05-06 13:50 | 53.04088 | 8.53843 | 2848 ft | 202 kts | 85° |
| 2026-05-06 13:50 | 53.04145 | 8.56116 | 2618 ft | 193 kts | 85° |
| 2026-05-06 13:50 | 53.04199 | 8.58298 | 2367 ft | 185 kts | 84° |
| 2026-05-06 13:50 | 53.04250 | 8.60388 | 2126 ft | 177 kts | 84° |
| 2026-05-06 13:51 | 53.04297 | 8.62341 | 1906 ft | 159 kts | 83° |
| 2026-05-06 13:51 | 53.04339 | 8.64093 | 1688 ft | 147 kts | 83° |
| 2026-05-06 13:51 | 53.04381 | 8.65771 | 1481 ft | 144 kts | 83° |
| 2026-05-06 13:51 | 53.04421 | 8.67415 | 1298 ft | 141 kts | 83° |
| 2026-05-06 13:52 | 53.04460 | 8.69038 | 1099 ft | 141 kts | 83° |
| 2026-05-06 13:52 | 53.04499 | 8.70665 | 879 ft | 141 kts | 83° |
| 2026-05-06 13:52 | 53.04537 | 8.72291 | 688 ft | 141 kts | 84° |
| 2026-05-06 13:52 | 53.04569 | 8.73913 | 488 ft | 140 kts | 83° |
| 2026-05-06 13:53 | 53.04617 | 8.75535 | 300 ft | 143 kts | 82° |
| 2026-05-06 13:53 | 53.04651 | 8.77195 | 99 ft | 144 kts | 85° |
| 2026-05-06 13:53 | 53.04688 | 8.78780 | 22 ft | 115 kts | 87° |
| 2026-05-06 13:53 | 53.04706 | 8.79602 | 22 ft | 30 kts | 88° |
| 2026-05-06 13:54 | 53.04713 | 8.79880 | 22 ft | 12 kts | 82° |
| 2026-05-06 13:54 | 53.04764 | 8.79972 | 26 ft | 11 kts | 22° |
| 2026-05-06 13:54 | 53.04843 | 8.79959 | 23 ft | 13 kts | 328° |
| 2026-05-06 13:54 | 53.04876 | 8.79817 | 23 ft | 14 kts | 269° |
| 2026-05-06 13:55 | 53.04873 | 8.79648 | 23 ft | 15 kts | 267° |
| 2026-05-06 13:55 | 53.04868 | 8.79458 | 23 ft | 18 kts | 268° |
| 2026-05-06 13:55 | 53.04863 | 8.79247 | 23 ft | 19 kts | 268° |
| 2026-05-06 13:55 | 53.04857 | 8.79011 | 20 ft | 22 kts | 267° |
| 2026-05-06 13:56 | 53.04852 | 8.78778 | 21 ft | 17 kts | 268° |
| 2026-05-06 13:56 | 53.04910 | 8.78657 | 24 ft | 15 kts | 356° |
| 2026-05-06 13:56 | 53.05009 | 8.78613 | 22 ft | 16 kts | 317° |
| 2026-05-06 13:56 | 53.05073 | 8.78519 | 22 ft | 8 kts | 321° |
| 2026-05-06 13:57 | 53.05114 | 8.78555 | 23 ft | 8 kts | 50° |
| 2026-05-06 13:57 | 53.05136 | 8.78595 | 22 ft | 0 kts | 47° |
| 2026-05-06 13:57 | 53.05137 | 8.78596 | 22 ft | 0 kts | 47° |